Time;durP1;ratioP1;P1;durP2;ratioP2;P2;SDS_P1;SDS_P2;PMS_P1;PMS_P2;Temp;Humidity;BMP_temperature;BMP_pressure;BME280_temperature;BME280_humidity;BME280_pressure;Samples;Min_cycle;Max_cycle;Signal;HPM_P1;HPM_P2
2023/12/23 00:00:41;;;;;;;0.98;0.50;;;;;;;;;;5078999;28;20250;-60
2023/12/23 00:03:08;;;;;;;0.70;0.60;;;;;;;;;;5079222;28;20287;-60
2023/12/23 00:05:37;;;;;;;0.70;0.60;;;;;;;;;;5079067;28;20193;-60
2023/12/23 00:08:05;;;;;;;2.33;1.48;;;;;;;;;;5078892;28;20691;-60
2023/12/23 00:10:32;;;;;;;1.63;0.90;;;;;;;;;;5079110;28;20609;-60
2023/12/23 00:12:58;;;;;;;0.90;0.80;;;;;;;;;;5079079;28;20615;-60
2023/12/23 00:15:25;;;;;;;1.45;0.50;;;;;;;;;;5079002;28;20216;-60
2023/12/23 00:17:52;;;;;;;1.50;0.70;;;;;;;;;;5079004;28;20275;-60
2023/12/23 00:20:19;;;;;;;1.00;0.80;;;;;;;;;;5078922;28;20543;-60
2023/12/23 00:22:48;;;;;;;1.42;0.80;;;;;;;;;;5079107;28;20200;-60
2023/12/23 00:25:14;;;;;;;0.70;0.60;;;;;;;;;;5078995;28;20291;-60
2023/12/23 00:27:41;;;;;;;0.95;0.60;;;;;;;;;;5078910;28;20277;-60
2023/12/23 00:30:09;;;;;;;0.70;0.60;;;;;;;;;;5074645;28;20185;-60
2023/12/23 00:32:36;;;;;;;0.60;0.50;;;;;;;;;;5075676;28;20223;-60
2023/12/23 00:35:03;;;;;;;4.93;0.60;;;;;;;;;;5075461;28;20224;-60
2023/12/23 00:37:30;;;;;;;1.60;0.70;;;;;;;;;;5075719;28;20223;-59
2023/12/23 00:39:58;;;;;;;0.85;0.77;;;;;;;;;;5075699;28;20646;-60
2023/12/23 00:42:25;;;;;;;1.58;0.60;;;;;;;;;;5075539;28;20280;-60
2023/12/23 00:44:52;;;;;;;0.90;0.70;;;;;;;;;;5075478;28;20197;-60
2023/12/23 00:47:21;;;;;;;0.60;0.60;;;;;;;;;;5075379;28;20276;-59
2023/12/23 00:49:48;;;;;;;0.60;0.50;;;;;;;;;;5075284;28;20189;-60
2023/12/23 00:52:15;;;;;;;0.60;0.50;;;;;;;;;;5075442;28;20225;-59
2023/12/23 00:54:42;;;;;;;1.05;0.68;;;;;;;;;;5075111;28;20283;-60
2023/12/23 00:57:10;;;;;;;0.90;0.70;;;;;;;;;;5075272;28;20275;-60
2023/12/23 00:59:37;;;;;;;0.70;0.60;;;;;;;;;;5075241;28;20185;-60
2023/12/23 01:02:04;;;;;;;0.85;0.68;;;;;;;;;;5074991;28;20603;-60
2023/12/23 01:04:31;;;;;;;3.67;1.10;;;;;;;;;;5075278;28;20197;-60
2023/12/23 01:06:58;;;;;;;0.90;0.90;;;;;;;;;;5075116;28;20224;-60
2023/12/23 01:09:25;;;;;;;1.67;1.00;;;;;;;;;;5075189;28;20193;-60
2023/12/23 01:11:52;;;;;;;1.00;0.90;;;;;;;;;;5074944;28;20556;-60
2023/12/23 01:14:20;;;;;;;0.73;0.73;;;;;;;;;;5074660;28;20751;-60
2023/12/23 01:16:47;;;;;;;2.28;0.82;;;;;;;;;;5074778;28;20280;-60
2023/12/23 01:19:14;;;;;;;0.82;0.82;;;;;;;;;;5075238;28;20185;-60
2023/12/23 01:21:41;;;;;;;0.80;0.70;;;;;;;;;;5074843;28;20409;-59
2023/12/23 01:24:08;;;;;;;0.95;0.50;;;;;;;;;;5074715;28;20280;-60
2023/12/23 01:26:35;;;;;;;5.05;0.70;;;;;;;;;;5074649;28;20224;-60
2023/12/23 01:29:03;;;;;;;5.78;0.80;;;;;;;;;;5074591;28;20284;-60
2023/12/23 01:31:31;;;;;;;0.70;0.60;;;;;;;;;;5074426;28;20280;-60
2023/12/23 01:33:58;;;;;;;0.95;0.70;;;;;;;;;;5074591;28;20193;-59
2023/12/23 01:36:25;;;;;;;2.45;0.63;;;;;;;;;;5074541;28;20199;-60
2023/12/23 01:38:52;;;;;;;0.75;0.70;;;;;;;;;;5074430;28;20657;-60
2023/12/23 01:41:19;;;;;;;1.08;0.70;;;;;;;;;;5074066;28;20284;-60
2023/12/23 01:43:46;;;;;;;1.02;0.90;;;;;;;;;;5074385;28;20197;-60
2023/12/23 01:46:13;;;;;;;4.15;0.90;;;;;;;;;;5074370;28;20189;-60
2023/12/23 01:48:43;;;;;;;2.10;1.17;;;;;;;;;;5074267;28;20736;-60
2023/12/23 01:51:11;;;;;;;0.98;0.73;;;;;;;;;;5074189;28;20189;-60
2023/12/23 01:53:38;;;;;;;1.70;0.85;;;;;;;;;;5074098;28;20545;-60
2023/12/23 01:56:05;;;;;;;3.70;1.10;;;;;;;;;;5073887;28;20228;-60
2023/12/23 01:58:33;;;;;;;1.60;0.70;;;;;;;;;;5073848;28;20272;-60
2023/12/23 02:01:00;;;;;;;1.40;0.88;;;;;;;;;;5074134;28;20280;-60
2023/12/23 02:03:28;;;;;;;1.35;0.70;;;;;;;;;;5074362;28;20276;-59
2023/12/23 02:05:56;;;;;;;2.67;0.80;;;;;;;;;;5073646;28;20731;-59
2023/12/23 02:08:23;;;;;;;2.42;0.85;;;;;;;;;;5073738;28;20288;-59
2023/12/23 02:10:55;;;;;;;1.55;1.00;;;;;;;;;;5073617;28;20619;-60
2023/12/23 02:13:25;;;;;;;5.95;1.00;;;;;;;;;;5073829;28;20278;-59
2023/12/23 02:15:53;;;;;;;1.58;0.75;;;;;;;;;;5073691;28;20239;-59
2023/12/23 02:18:20;;;;;;;0.80;0.70;;;;;;;;;;5073599;28;20193;-60
2023/12/23 02:20:49;;;;;;;2.60;1.45;;;;;;;;;;5073904;28;20195;-59
2023/12/23 02:23:16;;;;;;;2.65;1.00;;;;;;;;;;5073384;28;20189;-60
2023/12/23 02:25:44;;;;;;;4.22;1.25;;;;;;;;;;5073393;28;20291;-59
2023/12/23 02:28:13;;;;;;;3.28;1.00;;;;;;;;;;5073664;28;20193;-59
2023/12/23 02:30:41;;;;;;;1.63;1.08;;;;;;;;;;5073483;28;20280;-59
2023/12/23 02:33:09;;;;;;;1.00;0.60;;;;;;;;;;5073433;28;20243;-60
2023/12/23 02:35:36;;;;;;;1.73;0.70;;;;;;;;;;5073186;28;20224;-59
2023/12/23 02:38:04;;;;;;;0.90;0.60;;;;;;;;;;5073113;28;20280;-60
2023/12/23 02:40:31;;;;;;;4.50;0.93;;;;;;;;;;5073350;28;20288;-59
2023/12/23 02:42:58;;;;;;;2.80;0.70;;;;;;;;;;5073529;28;20189;-59
2023/12/23 02:45:25;;;;;;;1.70;0.75;;;;;;;;;;5073206;28;20209;-60
2023/12/23 02:47:52;;;;;;;1.60;0.73;;;;;;;;;;5073139;28;20593;-60
2023/12/23 02:50:19;;;;;;;6.47;0.80;;;;;;;;;;5073349;28;20189;-59
2023/12/23 02:52:46;;;;;;;1.70;0.60;;;;;;;;;;5072223;28;20303;-60
2023/12/23 02:55:18;;;;;;;3.20;0.80;;;;;;;;;;5072995;28;20260;-60
2023/12/23 02:57:45;;;;;;;2.17;0.95;;;;;;;;;;5073112;28;20615;-60
2023/12/23 03:00:12;;;;;;;6.43;0.90;;;;;;;;;;5073273;28;20190;-60
2023/12/23 03:02:39;;;;;;;1.55;0.88;;;;;;;;;;5073005;28;20193;-60
2023/12/23 03:05:07;;;;;;;1.85;1.10;;;;;;;;;;5072790;28;20623;-60
2023/12/23 03:07:34;;;;;;;2.40;0.80;;;;;;;;;;5072818;28;20644;-59
2023/12/23 03:10:01;;;;;;;0.90;0.70;;;;;;;;;;5072993;28;20279;-59
2023/12/23 03:12:29;;;;;;;2.42;0.80;;;;;;;;;;5072919;28;20280;-60
2023/12/23 03:14:56;;;;;;;2.03;0.80;;;;;;;;;;5072634;28;20225;-60
2023/12/23 03:17:25;;;;;;;3.00;0.85;;;;;;;;;;5072760;28;20192;-59
2023/12/23 03:19:53;;;;;;;1.48;0.73;;;;;;;;;;5072708;28;20192;-60
2023/12/23 03:22:20;;;;;;;2.60;0.77;;;;;;;;;;5072898;28;20225;-60
2023/12/23 03:24:47;;;;;;;1.10;0.80;;;;;;;;;;5072803;28;20280;-60
2023/12/23 03:27:14;;;;;;;6.75;1.00;;;;;;;;;;5072742;28;20271;-60
2023/12/23 03:29:42;;;;;;;3.05;1.00;;;;;;;;;;5072955;28;20185;-59
2023/12/23 03:32:09;;;;;;;1.80;0.68;;;;;;;;;;5072561;28;20354;-60
2023/12/23 03:34:36;;;;;;;1.65;0.68;;;;;;;;;;5072752;28;20231;-60
2023/12/23 03:37:03;;;;;;;1.45;0.60;;;;;;;;;;5072754;28;20636;-60
2023/12/23 03:39:30;;;;;;;1.33;0.80;;;;;;;;;;5072936;28;20193;-60
2023/12/23 03:41:57;;;;;;;2.22;0.90;;;;;;;;;;5072569;28;20279;-59
2023/12/23 03:44:24;;;;;;;4.40;0.90;;;;;;;;;;5072472;28;20278;-59
2023/12/23 03:46:52;;;;;;;3.72;1.08;;;;;;;;;;5072316;28;20221;-59
2023/12/23 03:49:19;;;;;;;1.02;0.70;;;;;;;;;;5072668;28;20622;-60
2023/12/23 03:51:46;;;;;;;4.00;0.90;;;;;;;;;;5072856;28;20283;-59
2023/12/23 03:54:13;;;;;;;1.35;0.70;;;;;;;;;;5072125;28;20202;-60
2023/12/23 03:56:40;;;;;;;3.55;0.55;;;;;;;;;;5072440;28;20216;-60
2023/12/23 03:59:07;;;;;;;0.60;0.50;;;;;;;;;;5072339;28;20195;-60
2023/12/23 04:01:34;;;;;;;4.05;1.00;;;;;;;;;;5072316;28;20637;-60
2023/12/23 04:04:03;;;;;;;1.90;0.80;;;;;;;;;;5074611;28;20189;-60
2023/12/23 04:06:30;;;;;;;1.35;0.60;;;;;;;;;;5076385;28;20208;-59
2023/12/23 04:08:57;;;;;;;0.77;0.60;;;;;;;;;;5076067;28;20243;-60
2023/12/23 04:11:24;;;;;;;4.53;0.80;;;;;;;;;;5076012;28;20196;-59
2023/12/23 04:13:51;;;;;;;1.83;0.70;;;;;;;;;;5075840;28;20277;-59
2023/12/23 04:16:18;;;;;;;1.33;0.70;;;;;;;;;;5075979;28;20221;-60
2023/12/23 04:18:45;;;;;;;3.17;1.10;;;;;;;;;;5075994;28;20280;-59
2023/12/23 04:21:13;;;;;;;1.88;0.70;;;;;;;;;;5076127;28;20185;-60
2023/12/23 04:23:40;;;;;;;1.83;1.17;;;;;;;;;;5075778;28;20194;-59
2023/12/23 04:26:07;;;;;;;2.55;0.88;;;;;;;;;;5075981;28;20195;-60
2023/12/23 04:28:34;;;;;;;9.93;1.30;;;;;;;;;;5075607;28;20284;-60
2023/12/23 04:31:01;;;;;;;4.72;1.10;;;;;;;;;;5075795;28;20275;-60
2023/12/23 04:33:28;;;;;;;4.50;2.03;;;;;;;;;;5075703;28;20624;-60
2023/12/23 04:35:55;;;;;;;3.75;1.20;;;;;;;;;;5075802;28;20220;-60
2023/12/23 04:38:23;;;;;;;1.42;0.90;;;;;;;;;;5075519;28;20259;-60
2023/12/23 04:40:50;;;;;;;4.40;1.15;;;;;;;;;;5075643;28;20276;-60
2023/12/23 04:43:17;;;;;;;5.57;0.90;;;;;;;;;;5075818;28;20593;-60
2023/12/23 04:45:44;;;;;;;5.38;0.90;;;;;;;;;;5075292;28;20193;-60
2023/12/23 04:48:11;;;;;;;4.78;1.50;;;;;;;;;;5075461;28;20277;-60
2023/12/23 04:50:38;;;;;;;5.05;1.42;;;;;;;;;;5075299;28;20185;-60
2023/12/23 04:53:05;;;;;;;5.85;1.40;;;;;;;;;;5075255;28;20193;-60
2023/12/23 04:55:33;;;;;;;5.13;1.17;;;;;;;;;;5075179;28;20225;-60
2023/12/23 04:58:00;;;;;;;4.90;1.20;;;;;;;;;;5075340;28;20185;-60
2023/12/23 05:00:27;;;;;;;5.55;1.77;;;;;;;;;;5075188;28;20571;-60
2023/12/23 05:02:54;;;;;;;2.42;1.10;;;;;;;;;;5075126;28;20195;-60
2023/12/23 05:05:21;;;;;;;5.80;1.17;;;;;;;;;;5075085;28;20199;-60
2023/12/23 05:07:48;;;;;;;4.45;1.17;;;;;;;;;;5074913;28;20276;-60
2023/12/23 05:10:15;;;;;;;8.05;1.40;;;;;;;;;;5074784;28;20275;-60
2023/12/23 05:12:43;;;;;;;11.30;1.50;;;;;;;;;;5075052;28;20276;-60
2023/12/23 05:15:10;;;;;;;2.95;1.38;;;;;;;;;;5074122;28;20219;-60
2023/12/23 05:17:37;;;;;;;5.68;0.98;;;;;;;;;;5074880;28;20221;-60
2023/12/23 05:20:05;;;;;;;6.03;1.40;;;;;;;;;;5074790;28;20240;-60
2023/12/23 05:22:32;;;;;;;7.88;1.45;;;;;;;;;;5074646;28;20637;-60
2023/12/23 05:24:59;;;;;;;9.13;2.65;;;;;;;;;;5074814;28;20189;-60
2023/12/23 05:27:26;;;;;;;4.22;1.42;;;;;;;;;;5074725;28;20282;-60
2023/12/23 05:29:55;;;;;;;6.68;1.73;;;;;;;;;;5074635;28;20276;-60
2023/12/23 05:32:22;;;;;;;5.32;1.45;;;;;;;;;;5074708;28;20212;-60
2023/12/23 05:34:49;;;;;;;2.53;1.20;;;;;;;;;;5074461;28;20327;-60
2023/12/23 05:37:16;;;;;;;14.73;1.70;;;;;;;;;;5074215;28;20217;-60
2023/12/23 05:39:47;;;;;;;14.10;2.58;;;;;;;;;;5074492;28;20193;-60
2023/12/23 05:42:14;;;;;;;3.53;1.30;;;;;;;;;;5074396;28;20190;-60
2023/12/23 05:44:41;;;;;;;3.90;1.02;;;;;;;;;;5074122;28;20649;-60
2023/12/23 05:47:10;;;;;;;4.53;1.45;;;;;;;;;;5074207;28;20196;-60
2023/12/23 05:49:36;;;;;;;8.32;1.40;;;;;;;;;;5074060;28;20275;-60
2023/12/23 05:52:04;;;;;;;4.20;1.65;;;;;;;;;;5074010;28;20227;-60
2023/12/23 05:54:30;;;;;;;4.75;1.90;;;;;;;;;;5073957;28;20221;-60
2023/12/23 05:56:57;;;;;;;4.05;1.48;;;;;;;;;;5074027;28;20224;-60
2023/12/23 05:59:25;;;;;;;3.45;1.85;;;;;;;;;;5074000;28;20208;-60
2023/12/23 06:01:52;;;;;;;4.60;2.13;;;;;;;;;;5073833;28;20242;-60
2023/12/23 06:04:21;;;;;;;2.55;1.92;;;;;;;;;;5073806;28;20549;-60
2023/12/23 06:06:47;;;;;;;7.05;2.00;;;;;;;;;;5073848;28;20189;-60
2023/12/23 06:09:14;;;;;;;5.97;1.98;;;;;;;;;;5073882;28;20272;-59
2023/12/23 06:11:41;;;;;;;9.98;2.30;;;;;;;;;;5073822;28;20600;-60
2023/12/23 06:14:08;;;;;;;5.03;1.40;;;;;;;;;;5073516;28;20659;-59
2023/12/23 06:16:39;;;;;;;10.80;1.60;;;;;;;;;;5073491;28;20680;-60
2023/12/23 06:19:06;;;;;;;8.00;1.80;;;;;;;;;;5073496;28;20193;-59
2023/12/23 06:21:35;;;;;;;5.05;1.38;;;;;;;;;;5073670;28;20605;-59
2023/12/23 06:24:02;;;;;;;7.82;1.40;;;;;;;;;;5073799;28;20279;-60
2023/12/23 06:26:29;;;;;;;6.25;1.33;;;;;;;;;;5072802;28;20193;-60
2023/12/23 06:28:56;;;;;;;6.03;1.33;;;;;;;;;;5073277;28;20549;-60
2023/12/23 06:31:23;;;;;;;13.00;1.58;;;;;;;;;;5073187;28;20185;-60
2023/12/23 06:33:50;;;;;;;2.55;1.10;;;;;;;;;;5073537;28;20185;-60
2023/12/23 06:36:17;;;;;;;2.63;1.13;;;;;;;;;;5073590;28;20213;-60
2023/12/23 06:38:45;;;;;;;4.15;1.63;;;;;;;;;;5073337;28;20196;-60
2023/12/23 06:41:12;;;;;;;3.08;1.60;;;;;;;;;;5073311;28;20297;-60
2023/12/23 06:43:39;;;;;;;5.13;1.33;;;;;;;;;;5073156;28;20185;-59
2023/12/23 06:46:06;;;;;;;4.60;1.10;;;;;;;;;;5073374;28;20283;-60
2023/12/23 06:48:33;;;;;;;6.57;1.30;;;;;;;;;;5073262;28;20272;-60
2023/12/23 06:51:00;;;;;;;2.80;1.00;;;;;;;;;;5073218;28;20300;-60
2023/12/23 06:53:27;;;;;;;4.82;1.63;;;;;;;;;;5073324;28;20188;-59
2023/12/23 06:55:55;;;;;;;8.10;1.30;;;;;;;;;;5072812;28;20233;-60
2023/12/23 06:58:23;;;;;;;5.53;1.75;;;;;;;;;;5073118;28;20670;-60
2023/12/23 07:00:50;;;;;;;2.80;1.40;;;;;;;;;;5073176;28;20276;-60
2023/12/23 07:03:17;;;;;;;5.53;1.98;;;;;;;;;;5073095;28;20262;-60
2023/12/23 07:05:44;;;;;;;2.13;1.25;;;;;;;;;;5072986;28;20196;-60
2023/12/23 07:08:11;;;;;;;5.55;1.38;;;;;;;;;;5072878;28;20276;-60
2023/12/23 07:10:38;;;;;;;6.47;1.40;;;;;;;;;;5072771;28;20280;-60
2023/12/23 07:13:06;;;;;;;5.60;1.48;;;;;;;;;;5072778;28;20670;-60
2023/12/23 07:15:33;;;;;;;3.75;1.20;;;;;;;;;;5072872;28;20276;-60
2023/12/23 07:18:00;;;;;;;4.18;1.92;;;;;;;;;;5072886;28;20189;-60
2023/12/23 07:20:27;;;;;;;5.15;1.33;;;;;;;;;;5072765;28;20197;-60
2023/12/23 07:22:54;;;;;;;5.90;1.80;;;;;;;;;;5072734;28;20196;-59
2023/12/23 07:25:21;;;;;;;4.63;1.40;;;;;;;;;;5072615;28;20196;-61
2023/12/23 07:27:48;;;;;;;1.55;0.95;;;;;;;;;;5072564;28;20547;-59
2023/12/23 07:30:17;;;;;;;6.97;1.00;;;;;;;;;;5072844;28;20280;-60
2023/12/23 07:32:44;;;;;;;4.22;1.60;;;;;;;;;;5072800;28;20190;-60
2023/12/23 07:35:11;;;;;;;8.68;1.33;;;;;;;;;;5072748;28;20239;-60
2023/12/23 07:37:38;;;;;;;5.28;1.23;;;;;;;;;;5072466;28;20220;-60
2023/12/23 07:40:06;;;;;;;5.18;1.20;;;;;;;;;;5076492;28;20280;-60
2023/12/23 07:42:33;;;;;;;7.40;1.88;;;;;;;;;;5076838;28;20193;-60
2023/12/23 07:45:00;;;;;;;6.00;1.60;;;;;;;;;;5076733;28;20615;-60
2023/12/23 07:47:28;;;;;;;6.38;1.23;;;;;;;;;;5076449;28;20196;-60
2023/12/23 07:49:55;;;;;;;2.67;1.15;;;;;;;;;;5076402;28;20198;-59
2023/12/23 07:52:22;;;;;;;4.22;1.48;;;;;;;;;;5076293;28;20191;-59
2023/12/23 07:54:51;;;;;;;7.30;1.30;;;;;;;;;;5076042;28;20308;-60
2023/12/23 07:57:18;;;;;;;5.57;1.15;;;;;;;;;;5076326;28;20696;-60
2023/12/23 07:59:45;;;;;;;3.03;1.35;;;;;;;;;;5076336;28;20195;-60
2023/12/23 08:02:12;;;;;;;4.55;1.20;;;;;;;;;;5076261;28;20189;-60
2023/12/23 08:04:41;;;;;;;4.65;1.38;;;;;;;;;;5076133;28;20193;-60
2023/12/23 08:07:07;;;;;;;3.20;1.13;;;;;;;;;;5076030;28;20288;-60
2023/12/23 08:09:34;;;;;;;5.72;1.52;;;;;;;;;;5076194;28;20224;-60
2023/12/23 08:12:02;;;;;;;4.38;2.85;;;;;;;;;;5076060;28;20627;-60
2023/12/23 08:14:29;;;;;;;2.45;1.15;;;;;;;;;;5076044;28;20630;-60
2023/12/23 08:16:56;;;;;;;2.35;1.05;;;;;;;;;;5075940;28;20225;-60
2023/12/23 08:19:22;;;;;;;1.95;1.40;;;;;;;;;;5075973;28;20228;-60
2023/12/23 08:21:51;;;;;;;4.63;1.80;;;;;;;;;;5075608;28;20224;-60
2023/12/23 08:24:18;;;;;;;2.05;1.15;;;;;;;;;;5075941;28;20191;-60
2023/12/23 08:26:45;;;;;;;3.38;1.30;;;;;;;;;;5075957;28;20676;-60
2023/12/23 08:29:12;;;;;;;6.57;1.40;;;;;;;;;;5076076;28;20185;-60
2023/12/23 08:31:43;;;;;;;9.20;1.50;;;;;;;;;;5075666;28;20671;-60
2023/12/23 08:34:10;;;;;;;2.75;0.82;;;;;;;;;;5075616;28;20200;-60
2023/12/23 08:36:37;;;;;;;3.00;1.25;;;;;;;;;;5075749;28;20221;-60
2023/12/23 08:39:06;;;;;;;3.55;1.42;;;;;;;;;;5075631;28;20627;-60
2023/12/23 08:41:34;;;;;;;4.43;1.45;;;;;;;;;;5075461;28;20264;-61
2023/12/23 08:44:01;;;;;;;5.20;1.17;;;;;;;;;;5075422;28;20189;-60
2023/12/23 08:46:28;;;;;;;5.80;1.42;;;;;;;;;;5075362;28;20197;-60
2023/12/23 08:48:55;;;;;;;6.50;1.40;;;;;;;;;;5075197;28;20185;-60
2023/12/23 08:51:22;;;;;;;5.75;1.33;;;;;;;;;;5074371;28;20568;-60
2023/12/23 08:53:49;;;;;;;4.18;1.45;;;;;;;;;;5075270;28;20196;-60
2023/12/23 08:56:17;;;;;;;5.20;1.75;;;;;;;;;;5075180;28;20223;-60
2023/12/23 08:58:44;;;;;;;2.95;0.98;;;;;;;;;;5075223;28;20191;-60
2023/12/23 09:01:11;;;;;;;2.63;1.40;;;;;;;;;;5074969;28;20221;-61
2023/12/23 09:03:38;;;;;;;6.90;1.92;;;;;;;;;;5075379;28;20197;-60
2023/12/23 09:06:06;;;;;;;4.30;1.40;;;;;;;;;;5075108;28;20199;-60
2023/12/23 09:08:34;;;;;;;2.30;1.83;;;;;;;;;;5075123;28;20235;-60
2023/12/23 09:11:03;;;;;;;5.63;1.20;;;;;;;;;;5075022;28;20276;-60
2023/12/23 09:13:32;;;;;;;2.20;1.30;;;;;;;;;;5074878;28;20288;-60
2023/12/23 09:16:01;;;;;;;2.35;1.65;;;;;;;;;;5074748;28;20529;-60
2023/12/23 09:18:28;;;;;;;2.00;1.15;;;;;;;;;;5075065;28;20737;-60
2023/12/23 09:20:55;;;;;;;5.45;1.45;;;;;;;;;;5074842;28;20225;-60
2023/12/23 09:23:22;;;;;;;5.03;1.27;;;;;;;;;;5074686;28;20191;-60
2023/12/23 09:25:49;;;;;;;3.88;1.17;;;;;;;;;;5074628;28;20272;-60
2023/12/23 09:28:17;;;;;;;2.55;1.42;;;;;;;;;;5074538;28;20189;-60
2023/12/23 09:30:45;;;;;;;4.75;1.77;;;;;;;;;;5074511;28;20192;-60
2023/12/23 09:33:12;;;;;;;5.65;1.48;;;;;;;;;;5074655;28;20285;-60
2023/12/23 09:35:39;;;;;;;2.50;1.13;;;;;;;;;;5074583;28;20255;-60
2023/12/23 09:38:06;;;;;;;3.70;1.30;;;;;;;;;;5074137;28;20714;-60
2023/12/23 09:40:32;;;;;;;2.47;1.50;;;;;;;;;;5074284;28;20275;-60
2023/12/23 09:42:59;;;;;;;3.47;1.63;;;;;;;;;;5074144;28;20195;-60
2023/12/23 09:45:27;;;;;;;4.70;1.75;;;;;;;;;;5074304;28;20194;-60
2023/12/23 09:47:55;;;;;;;3.03;1.55;;;;;;;;;;5074271;28;20239;-60
2023/12/23 09:50:22;;;;;;;7.75;2.50;;;;;;;;;;5074186;28;20280;-60
2023/12/23 09:52:52;;;;;;;4.05;1.20;;;;;;;;;;5074112;28;20277;-60
2023/12/23 09:55:19;;;;;;;7.82;2.50;;;;;;;;;;5073811;28;20308;-60
2023/12/23 09:57:47;;;;;;;3.35;1.90;;;;;;;;;;5074059;28;20248;-60
2023/12/23 10:00:14;;;;;;;1.85;1.35;;;;;;;;;;5074091;28;20200;-60
2023/12/23 10:02:41;;;;;;;3.00;1.35;;;;;;;;;;5073766;28;20200;-59
2023/12/23 10:05:09;;;;;;;3.70;1.20;;;;;;;;;;5073876;28;20279;-59
2023/12/23 10:07:36;;;;;;;5.03;2.42;;;;;;;;;;5073819;28;20197;-59
2023/12/23 10:10:03;;;;;;;1.40;1.10;;;;;;;;;;5073767;28;20189;-59
2023/12/23 10:12:30;;;;;;;2.65;1.25;;;;;;;;;;5073837;28;20277;-59
2023/12/23 10:14:57;;;;;;;1.80;1.23;;;;;;;;;;5073761;28;20280;-59
2023/12/23 10:17:24;;;;;;;4.00;2.15;;;;;;;;;;5073627;28;20307;-61
2023/12/23 10:19:52;;;;;;;1.10;1.00;;;;;;;;;;5073684;28;20629;-61
2023/12/23 10:22:20;;;;;;;3.08;1.75;;;;;;;;;;5073583;28;20186;-61
2023/12/23 10:24:47;;;;;;;2.90;1.30;;;;;;;;;;5073234;28;20280;-61
2023/12/23 10:27:16;;;;;;;1.40;1.00;;;;;;;;;;5073666;28;20189;-61
2023/12/23 10:29:45;;;;;;;1.20;1.10;;;;;;;;;;5073508;28;20196;-61
2023/12/23 10:32:13;;;;;;;1.20;1.10;;;;;;;;;;5073467;28;20276;-61
2023/12/23 10:34:43;;;;;;;1.52;1.23;;;;;;;;;;5073373;28;20189;-61
2023/12/23 10:37:10;;;;;;;2.38;1.40;;;;;;;;;;5073136;28;20209;-61
2023/12/23 10:39:45;;;;;;;1.65;1.15;;;;;;;;;;5073487;28;20193;-61
2023/12/23 10:42:13;;;;;;;1.67;0.90;;;;;;;;;;5073695;28;20195;-61
2023/12/23 10:44:42;;;;;;;1.40;1.30;;;;;;;;;;5073278;28;20189;-61
2023/12/23 10:47:10;;;;;;;1.55;1.30;;;;;;;;;;5073178;28;20617;-61
2023/12/23 10:49:37;;;;;;;1.20;0.82;;;;;;;;;;5073093;28;20225;-61
2023/12/23 10:52:04;;;;;;;2.55;1.08;;;;;;;;;;5073299;28;20221;-61
2023/12/23 10:54:31;;;;;;;1.73;0.90;;;;;;;;;;5072979;28;20300;-61
2023/12/23 10:57:01;;;;;;;3.70;1.23;;;;;;;;;;5073087;28;20303;-61
2023/12/23 10:59:28;;;;;;;2.13;0.90;;;;;;;;;;5073039;28;20288;-61
2023/12/23 11:01:56;;;;;;;2.10;1.33;;;;;;;;;;5073019;28;20276;-61
2023/12/23 11:04:24;;;;;;;2.50;1.67;;;;;;;;;;5072872;28;20196;-61
2023/12/23 11:06:52;;;;;;;1.70;1.58;;;;;;;;;;5073049;28;20272;-61
2023/12/23 11:09:20;;;;;;;2.03;1.50;;;;;;;;;;5072970;28;20188;-61
2023/12/23 11:11:48;;;;;;;1.80;1.40;;;;;;;;;;5072932;28;20280;-61
2023/12/23 11:14:16;;;;;;;5.25;1.52;;;;;;;;;;5072322;28;20728;-61
2023/12/23 11:16:44;;;;;;;3.50;1.70;;;;;;;;;;5072796;28;20625;-61
2023/12/23 11:19:11;;;;;;;2.00;1.58;;;;;;;;;;5072806;28;20645;-61
2023/12/23 11:21:37;;;;;;;4.00;1.50;;;;;;;;;;5072934;28;20225;-61
2023/12/23 11:24:25;;;;;;;1.38;1.20;;;;;;;;;;5072806;28;20189;-61
2023/12/23 11:26:53;;;;;;;2.58;2.13;;;;;;;;;;5072629;28;20194;-61
2023/12/23 11:29:22;;;;;;;4.05;1.75;;;;;;;;;;5072691;28;20239;-61
2023/12/23 11:31:49;;;;;;;2.30;1.52;;;;;;;;;;5072836;28;20289;-61
2023/12/23 11:34:17;;;;;;;2.95;1.67;;;;;;;;;;5072784;28;20625;-61
2023/12/23 11:36:44;;;;;;;2.13;1.85;;;;;;;;;;5072796;28;20189;-61
2023/12/23 11:39:13;;;;;;;2.78;1.95;;;;;;;;;;5072538;28;20216;-61
2023/12/23 11:41:41;;;;;;;3.70;3.03;;;;;;;;;;5072574;28;20221;-62
2023/12/23 11:44:10;;;;;;;2.35;2.00;;;;;;;;;;5072507;28;20186;-61
2023/12/23 11:46:39;;;;;;;4.32;2.67;;;;;;;;;;5072685;28;20272;-61
2023/12/23 11:49:08;;;;;;;2.80;2.10;;;;;;;;;;5072863;28;20220;-61
2023/12/23 11:51:36;;;;;;;3.05;1.90;;;;;;;;;;5072489;28;20224;-61
2023/12/23 11:54:03;;;;;;;3.25;2.40;;;;;;;;;;5072452;28;20217;-61
2023/12/23 11:56:30;;;;;;;2.03;1.90;;;;;;;;;;5072299;28;20221;-61
2023/12/23 11:59:00;;;;;;;2.70;2.50;;;;;;;;;;5072584;28;20645;-61
2023/12/23 12:01:27;;;;;;;3.80;3.50;;;;;;;;;;5072571;28;20189;-61
2023/12/23 12:03:55;;;;;;;2.60;2.40;;;;;;;;;;5072281;28;20666;-61
2023/12/23 12:06:22;;;;;;;2.63;2.40;;;;;;;;;;5072378;28;20185;-61
2023/12/23 12:08:49;;;;;;;2.05;1.73;;;;;;;;;;5072162;28;20605;-61
2023/12/23 12:11:17;;;;;;;2.40;1.73;;;;;;;;;;5072485;28;20195;-61
2023/12/23 12:13:46;;;;;;;3.45;2.10;;;;;;;;;;5072580;28;20189;-61
2023/12/23 12:16:13;;;;;;;1.60;1.50;;;;;;;;;;5072343;28;20224;-61
2023/12/23 12:18:41;;;;;;;1.85;1.75;;;;;;;;;;5072218;28;20751;-61
2023/12/23 12:21:09;;;;;;;1.77;1.65;;;;;;;;;;5072186;28;20566;-61
2023/12/23 12:23:36;;;;;;;2.00;1.90;;;;;;;;;;5072301;28;20221;-61
2023/12/23 12:26:03;;;;;;;1.92;1.60;;;;;;;;;;5075853;28;20194;-61
2023/12/23 12:28:31;;;;;;;2.40;1.63;;;;;;;;;;5075883;28;20200;-61
2023/12/23 12:31:07;;;;;;;1.45;1.35;;;;;;;;;;5075773;28;20193;-61
2023/12/23 12:33:35;;;;;;;2.78;1.30;;;;;;;;;;5075778;28;20195;-61
2023/12/23 12:36:02;;;;;;;5.22;1.48;;;;;;;;;;5075624;28;20197;-61
2023/12/23 12:38:31;;;;;;;4.80;1.52;;;;;;;;;;5075472;28;20695;-61
2023/12/23 12:40:58;;;;;;;1.80;1.50;;;;;;;;;;5075635;28;20205;-61
2023/12/23 12:43:30;;;;;;;2.40;1.98;;;;;;;;;;5075591;28;20277;-61
2023/12/23 12:45:58;;;;;;;2.58;1.90;;;;;;;;;;5075489;28;20193;-61
2023/12/23 12:48:25;;;;;;;1.50;1.40;;;;;;;;;;5075591;28;20200;-61
2023/12/23 12:50:53;;;;;;;1.20;1.10;;;;;;;;;;5075543;28;20189;-61
2023/12/23 12:53:20;;;;;;;2.75;1.10;;;;;;;;;;5075466;28;20534;-61
2023/12/23 12:55:48;;;;;;;2.40;1.42;;;;;;;;;;5075303;28;20644;-61
2023/12/23 12:58:15;;;;;;;3.13;1.45;;;;;;;;;;5075243;28;20224;-61
2023/12/23 13:00:43;;;;;;;3.42;1.30;;;;;;;;;;5075230;28;20284;-61
2023/12/23 13:03:10;;;;;;;3.20;1.55;;;;;;;;;;5075071;28;20197;-61
2023/12/23 13:05:37;;;;;;;2.17;1.77;;;;;;;;;;5075033;28;20189;-61
2023/12/23 13:08:05;;;;;;;1.65;1.20;;;;;;;;;;5075122;28;20197;-61
2023/12/23 13:10:32;;;;;;;1.60;1.30;;;;;;;;;;5075089;28;20315;-61
2023/12/23 13:13:00;;;;;;;4.70;1.40;;;;;;;;;;5075008;28;20727;-61
2023/12/23 13:15:27;;;;;;;2.53;2.33;;;;;;;;;;5074837;28;20232;-62
2023/12/23 13:17:54;;;;;;;2.03;1.50;;;;;;;;;;5074967;28;20305;-61
2023/12/23 13:20:21;;;;;;;2.17;1.77;;;;;;;;;;5075099;28;20198;-61
2023/12/23 13:22:48;;;;;;;3.28;2.00;;;;;;;;;;5074748;28;20272;-62
2023/12/23 13:25:15;;;;;;;6.18;1.52;;;;;;;;;;5074762;28;20195;-61
2023/12/23 13:27:42;;;;;;;1.70;1.60;;;;;;;;;;5074595;28;20243;-61
2023/12/23 13:30:11;;;;;;;2.35;1.90;;;;;;;;;;5074468;28;20284;-62
2023/12/23 13:32:38;;;;;;;1.30;1.20;;;;;;;;;;5074842;28;20272;-63
2023/12/23 13:35:05;;;;;;;2.75;1.83;;;;;;;;;;5074580;28;20276;-61
2023/12/23 13:37:32;;;;;;;4.65;2.38;;;;;;;;;;5073845;28;20185;-62
2023/12/23 13:39:59;;;;;;;1.67;1.58;;;;;;;;;;5074469;28;20209;-61
2023/12/23 13:42:26;;;;;;;1.42;1.30;;;;;;;;;;5074392;28;20304;-61
2023/12/23 13:44:52;;;;;;;1.73;1.08;;;;;;;;;;5074154;28;20273;-62
2023/12/23 13:47:21;;;;;;;3.35;1.30;;;;;;;;;;5074445;28;20537;-61
2023/12/23 13:49:48;;;;;;;2.60;1.27;;;;;;;;;;5074437;28;20197;-61
2023/12/23 13:52:15;;;;;;;1.77;1.42;;;;;;;;;;5074199;28;20196;-61
2023/12/23 13:54:43;;;;;;;1.70;1.20;;;;;;;;;;5073884;28;20217;-61
2023/12/23 13:57:10;;;;;;;2.45;1.75;;;;;;;;;;5074037;28;20652;-62
2023/12/23 13:59:37;;;;;;;3.03;1.27;;;;;;;;;;5074228;28;20307;-61
2023/12/23 14:02:07;;;;;;;2.17;1.50;;;;;;;;;;5073953;28;20669;-61
2023/12/23 14:04:35;;;;;;;1.45;1.33;;;;;;;;;;5074012;28;20239;-61
2023/12/23 14:07:02;;;;;;;1.13;1.02;;;;;;;;;;5073866;28;20276;-61
2023/12/23 14:09:30;;;;;;;2.35;1.52;;;;;;;;;;5073933;28;20201;-61
2023/12/23 14:11:57;;;;;;;1.45;1.25;;;;;;;;;;5073769;28;20621;-61
2023/12/23 14:14:24;;;;;;;2.45;1.00;;;;;;;;;;5073815;28;20193;-61
2023/12/23 14:16:51;;;;;;;5.13;1.05;;;;;;;;;;5073769;28;20189;-61
2023/12/23 14:19:18;;;;;;;2.55;1.33;;;;;;;;;;5073745;28;20287;-61
2023/12/23 14:21:46;;;;;;;1.45;0.90;;;;;;;;;;5073604;28;20613;-61
2023/12/23 14:24:13;;;;;;;3.28;1.35;;;;;;;;;;5073617;28;20276;-61
2023/12/23 14:26:40;;;;;;;1.98;1.45;;;;;;;;;;5073665;28;20185;-61
2023/12/23 14:29:07;;;;;;;1.50;1.00;;;;;;;;;;5073628;28;20296;-61
2023/12/23 14:31:34;;;;;;;1.70;1.60;;;;;;;;;;5073317;28;20276;-62
2023/12/23 14:34:01;;;;;;;1.50;1.40;;;;;;;;;;5073415;28;20193;-62
2023/12/23 14:36:31;;;;;;;1.85;1.50;;;;;;;;;;5073306;28;20288;-61
2023/12/23 14:39:00;;;;;;;1.55;1.45;;;;;;;;;;5073234;28;20217;-62
2023/12/23 14:41:27;;;;;;;2.38;1.60;;;;;;;;;;5073491;28;20190;-61
2023/12/23 14:43:54;;;;;;;2.80;1.45;;;;;;;;;;5073357;28;20276;-61